Time;durP1;ratioP1;P1;durP2;ratioP2;P2;SDS_P1;SDS_P2;PMS_P1;PMS_P2;Temp;Humidity;BMP_temperature;BMP_pressure;BME280_temperature;BME280_humidity;BME280_pressure;Samples;Min_cycle;Max_cycle;Signal;HPM_P1;HPM_P2
2022/08/19 00:01:52;;;;;;;;;;;19.50;83.90;;;;;;4938788;29;19982;-91
2022/08/19 00:04:24;;;;;;;;;;;19.50;84.10;;;;;;4920624;29;19927;-90
2022/08/19 00:06:51;;;;;;;;;;;19.50;83.90;;;;;;4917143;29;19961;-90
2022/08/19 00:09:19;;;;;;;;;;;19.50;84.40;;;;;;4916985;29;19926;-90
2022/08/19 00:11:46;;;;;;;;;;;19.40;84.50;;;;;;4920068;29;19931;-91
2022/08/19 00:14:15;;;;;;;;;;;19.50;84.20;;;;;;4913219;29;19927;-90
2022/08/19 00:16:43;;;;;;;;;;;19.50;83.50;;;;;;4915586;29;20312;-91
2022/08/19 00:19:10;;;;;;;;;;;19.50;83.30;;;;;;4922759;29;19927;-89
2022/08/19 00:21:39;;;;;;;;;;;19.50;83.40;;;;;;4922061;29;20391;-91
2022/08/19 00:24:07;;;;;;;;;;;19.50;83.40;;;;;;4923223;29;19995;-92
2022/08/19 00:26:35;;;;;;;;;;;19.50;83.40;;;;;;4919142;29;20352;-91
2022/08/19 00:29:03;;;;;;;;;;;19.50;83.60;;;;;;4918646;29;19978;-91
2022/08/19 00:31:31;;;;;;;;;;;19.40;83.70;;;;;;4918201;29;19927;-90
2022/08/19 00:33:58;;;;;;;;;;;19.50;84.00;;;;;;4908520;29;19994;-91
2022/08/19 00:36:25;;;;;;;;;;;19.40;83.80;;;;;;4923146;29;19953;-90
2022/08/19 00:38:53;;;;;;;;;;;19.40;83.60;;;;;;4921559;29;19983;-88
2022/08/19 00:41:21;;;;;;;;;;;19.40;83.50;;;;;;4925199;29;19930;-89
2022/08/19 00:43:58;;;;;;;;;;;19.40;83.20;;;;;;4915984;29;19979;-90
2022/08/19 00:46:27;;;;;;;;;;;19.40;82.90;;;;;;4932678;29;19926;-91
2022/08/19 00:48:54;;;;;;;;;;;19.40;82.60;;;;;;4934416;28;20463;-89
2022/08/19 00:51:22;;;;;;;;;;;19.40;82.60;;;;;;4925425;29;19934;-91
2022/08/19 00:53:49;;;;;;;;;;;19.40;82.00;;;;;;4904933;29;19933;-90
2022/08/19 00:56:17;;;;;;;;;;;19.40;81.60;;;;;;4922520;29;19981;-90
2022/08/19 00:58:44;;;;;;;;;;;19.40;81.60;;;;;;4915402;29;19979;-91
2022/08/19 01:01:10;;;;;;;;;;;19.40;81.60;;;;;;4913107;29;19966;-91
2022/08/19 01:03:37;;;;;;;;;;;19.40;81.40;;;;;;4920478;29;20025;-90
2022/08/19 01:06:25;;;;;;;;;;;19.40;81.50;;;;;;4925299;29;19931;-91
2022/08/19 01:08:52;;;;;;;;;;;19.40;81.20;;;;;;4919883;29;19979;-93
2022/08/19 01:11:19;;;;;;;;;;;19.40;81.00;;;;;;4912110;29;20360;-91
2022/08/19 01:13:46;;;;;;;;;;;19.50;80.90;;;;;;4908017;29;19930;-91
2022/08/19 01:16:17;;;;;;;;;;;19.50;80.30;;;;;;4914434;29;19970;-91
2022/08/19 01:18:45;;;;;;;;;;;19.60;79.90;;;;;;4915243;29;19958;-91
2022/08/19 01:21:31;;;;;;;;;;;19.60;79.60;;;;;;4910502;29;20155;-92
2022/08/19 01:23:58;;;;;;;;;;;19.60;79.60;;;;;;4911812;29;19978;-92
2022/08/19 01:26:26;;;;;;;;;;;19.60;79.50;;;;;;4914903;29;19934;-88
2022/08/19 01:28:54;;;;;;;;;;;19.60;79.60;;;;;;4945051;29;19935;-91
2022/08/19 01:31:30;;;;;;;;;;;19.50;79.60;;;;;;4916574;29;19937;-90
2022/08/19 01:33:59;;;;;;;;;;;19.50;79.80;;;;;;4914122;29;19933;-91
2022/08/19 01:36:36;;;;;;;;;;;19.50;79.30;;;;;;4904966;29;19974;-91
2022/08/19 01:39:05;;;;;;;;;;;19.50;79.30;;;;;;4923279;29;20339;-90
2022/08/19 01:41:32;;;;;;;;;;;19.50;79.00;;;;;;4922383;29;19927;-88
2022/08/19 01:44:03;;;;;;;;;;;19.50;79.00;;;;;;4924893;29;19935;-90
2022/08/19 01:46:45;;;;;;;;;;;19.60;79.00;;;;;;4915967;29;20307;-92
2022/08/19 01:49:14;;;;;;;;;;;19.60;78.60;;;;;;4912698;29;20009;-92
2022/08/19 01:51:41;;;;;;;;;;;19.70;77.90;;;;;;4939680;29;20343;-91
2022/08/19 01:54:09;;;;;;;;;;;19.70;77.80;;;;;;4919769;29;20384;-92
2022/08/19 01:56:36;;;;;;;;;;;19.80;77.30;;;;;;4916660;29;20368;-92
2022/08/19 01:59:06;;;;;;;;;;;19.80;76.80;;;;;;4918253;29;19931;-89
2022/08/19 02:01:34;;;;;;;;;;;19.80;76.60;;;;;;4922507;29;19962;-91
2022/08/19 02:04:01;;;;;;;;;;;19.90;76.40;;;;;;4938655;29;19972;-91
2022/08/19 02:06:28;;;;;;;;;;;19.90;77.20;;;;;;4923914;29;19934;-88
2022/08/19 02:08:55;;;;;;;;;;;19.90;76.00;;;;;;4911310;29;19993;-90
2022/08/19 02:11:27;;;;;;;;;;;19.90;76.20;;;;;;4928893;29;19930;-90
2022/08/19 02:13:55;;;;;;;;;;;19.90;76.50;;;;;;4913392;29;19931;-88
2022/08/19 02:16:21;;;;;;;;;;;19.70;76.90;;;;;;4925259;29;19927;-87
2022/08/19 02:18:49;;;;;;;;;;;19.70;77.20;;;;;;4912723;29;20388;-90
2022/08/19 02:21:17;;;;;;;;;;;19.70;76.60;;;;;;4924542;29;19935;-88
2022/08/19 02:23:44;;;;;;;;;;;19.60;76.90;;;;;;4908589;29;19984;-90
2022/08/19 02:26:12;;;;;;;;;;;19.60;77.60;;;;;;4926332;29;19987;-89
2022/08/19 02:28:40;;;;;;;;;;;19.60;77.80;;;;;;4938248;29;19927;-91
2022/08/19 02:31:10;;;;;;;;;;;19.50;78.00;;;;;;4934191;29;19958;-89
2022/08/19 02:33:37;;;;;;;;;;;19.50;77.60;;;;;;4920877;29;19931;-91
2022/08/19 02:36:05;;;;;;;;;;;19.50;78.00;;;;;;4928909;29;20411;-88
2022/08/19 02:38:32;;;;;;;;;;;19.50;78.20;;;;;;4922012;29;19927;-90
2022/08/19 02:41:00;;;;;;;;;;;19.40;78.60;;;;;;4920461;29;19951;-90
2022/08/19 02:43:35;;;;;;;;;;;19.40;78.70;;;;;;4937970;29;19982;-90
2022/08/19 02:46:17;;;;;;;;;;;19.30;78.50;;;;;;4937854;29;19955;-90
2022/08/19 02:48:45;;;;;;;;;;;19.30;78.10;;;;;;4905839;29;19930;-89
2022/08/19 02:51:15;;;;;;;;;;;19.30;77.60;;;;;;4914977;29;19939;-90
2022/08/19 02:53:43;;;;;;;;;;;19.40;77.30;;;;;;4919355;29;19950;-90
2022/08/19 02:56:10;;;;;;;;;;;19.40;77.40;;;;;;4911514;29;19931;-88
2022/08/19 02:58:36;;;;;;;;;;;19.40;77.60;;;;;;4921753;29;19926;-89
2022/08/19 03:01:03;;;;;;;;;;;19.40;77.40;;;;;;4922791;28;19942;-90
2022/08/19 03:03:31;;;;;;;;;;;19.40;76.70;;;;;;4919885;29;19930;-91
2022/08/19 03:06:05;;;;;;;;;;;19.40;75.40;;;;;;4913515;29;19927;-90
2022/08/19 03:08:32;;;;;;;;;;;19.40;74.90;;;;;;4913882;29;19927;-91
2022/08/19 03:10:59;;;;;;;;;;;19.40;74.60;;;;;;4910806;29;20412;-88
2022/08/19 03:13:26;;;;;;;;;;;19.40;74.90;;;;;;4923637;29;19927;-90
2022/08/19 03:15:52;;;;;;;;;;;19.50;74.70;;;;;;4911668;29;19927;-90
2022/08/19 03:18:19;;;;;;;;;;;19.50;75.10;;;;;;4915067;29;19981;-87
2022/08/19 03:20:49;;;;;;;;;;;19.50;75.30;;;;;;4920309;29;20388;-87
2022/08/19 03:23:17;;;;;;;;;;;19.50;74.70;;;;;;4937896;29;19927;-90
2022/08/19 03:25:45;;;;;;;;;;;19.60;74.70;;;;;;4922075;29;20380;-90
2022/08/19 03:28:23;;;;;;;;;;;19.60;74.50;;;;;;4909381;29;20018;-91
2022/08/19 03:30:57;;;;;;;;;;;19.50;74.30;;;;;;4912061;29;19927;-89
2022/08/19 03:33:28;;;;;;;;;;;19.60;74.20;;;;;;4906702;29;19938;-90
2022/08/19 03:35:59;;;;;;;;;;;19.60;73.40;;;;;;4919756;29;19970;-89
2022/08/19 03:38:26;;;;;;;;;;;19.60;73.80;;;;;;4924336;29;28992;-90
2022/08/19 03:40:53;;;;;;;;;;;19.60;73.70;;;;;;4925145;29;19927;-89
2022/08/19 03:43:21;;;;;;;;;;;19.60;73.50;;;;;;4938547;29;19927;-90
2022/08/19 03:45:48;;;;;;;;;;;19.60;73.70;;;;;;4922817;29;19930;-90
2022/08/19 03:48:17;;;;;;;;;;;19.60;73.80;;;;;;4920470;29;19927;-90
2022/08/19 03:50:44;;;;;;;;;;;19.60;73.50;;;;;;4923872;29;19930;-91
2022/08/19 03:53:10;;;;;;;;;;;19.50;73.40;;;;;;4925724;29;19963;-86
2022/08/19 03:55:41;;;;;;;;;;;19.60;73.10;;;;;;4914077;29;19931;-89
2022/08/19 03:58:08;;;;;;;;;;;19.60;72.90;;;;;;4911519;29;19934;-86
2022/08/19 04:00:36;;;;;;;;;;;19.60;72.50;;;;;;4923577;29;19931;-88
2022/08/19 04:03:03;;;;;;;;;;;19.60;72.10;;;;;;4906852;29;19931;-89
2022/08/19 04:05:30;;;;;;;;;;;19.70;71.80;;;;;;4924324;29;19930;-87
2022/08/19 04:07:58;;;;;;;;;;;19.70;72.00;;;;;;4940534;29;19927;-88
2022/08/19 04:10:26;;;;;;;;;;;19.70;71.90;;;;;;4921950;29;19931;-91
2022/08/19 04:12:53;;;;;;;;;;;19.70;72.20;;;;;;4920019;29;19978;-89
2022/08/19 04:15:20;;;;;;;;;;;19.60;71.60;;;;;;4918821;29;20403;-88
2022/08/19 04:17:47;;;;;;;;;;;19.70;71.70;;;;;;4938156;29;19927;-87
2022/08/19 04:20:14;;;;;;;;;;;19.70;71.20;;;;;;4917637;29;20354;-91
2022/08/19 04:22:41;;;;;;;;;;;19.70;71.20;;;;;;4920478;29;19927;-88
2022/08/19 04:25:08;;;;;;;;;;;19.70;71.30;;;;;;4939250;29;19927;-86
2022/08/19 04:27:35;;;;;;;;;;;19.70;71.20;;;;;;4921895;29;20347;-87
2022/08/19 04:30:02;;;;;;;;;;;19.70;71.20;;;;;;4906099;29;19977;-88
2022/08/19 04:32:30;;;;;;;;;;;19.80;70.30;;;;;;4916951;29;19986;-88
2022/08/19 04:34:58;;;;;;;;;;;19.80;70.60;;;;;;4904743;29;19927;-87
2022/08/19 04:37:43;;;;;;;;;;;19.80;70.70;;;;;;4922100;29;20018;-86
2022/08/19 04:42:56;;;;;;;;;;;19.70;71.00;;;;;;4931707;29;20411;-89
2022/08/19 04:45:23;;;;;;;;;;;19.70;71.10;;;;;;4940603;29;20463;-89
2022/08/19 04:47:49;;;;;;;;;;;19.70;70.80;;;;;;4912019;29;19931;-88
2022/08/19 04:50:39;;;;;;;;;;;19.70;70.80;;;;;;4921942;29;19957;-89
2022/08/19 04:53:06;;;;;;;;;;;19.60;71.50;;;;;;4920769;29;20280;-89
2022/08/19 04:55:33;;;;;;;;;;;19.60;70.80;;;;;;4911696;29;19962;-88
2022/08/19 04:58:03;;;;;;;;;;;19.70;70.80;;;;;;4928719;29;19930;-89
2022/08/19 05:00:36;;;;;;;;;;;19.60;70.50;;;;;;4923547;29;19927;-88
2022/08/19 05:03:04;;;;;;;;;;;19.70;70.30;;;;;;4925323;29;19934;-90
2022/08/19 05:05:33;;;;;;;;;;;19.70;70.40;;;;;;4921612;29;20006;-88
2022/08/19 05:08:12;;;;;;;;;;;19.70;70.00;;;;;;4914697;29;19927;-86
2022/08/19 05:10:40;;;;;;;;;;;19.70;70.10;;;;;;4909687;29;19927;-88
2022/08/19 05:13:08;;;;;;;;;;;19.70;70.10;;;;;;4911987;29;19981;-86
2022/08/19 05:15:36;;;;;;;;;;;19.80;70.10;;;;;;4917623;29;20367;-90
2022/08/19 05:23:33;;;;;;;;;;;19.80;69.60;;;;;;4935794;29;19982;-88
2022/08/19 05:26:00;;;;;;;;;;;19.90;69.50;;;;;;4914783;29;19954;-87
2022/08/19 05:28:27;;;;;;;;;;;19.90;69.10;;;;;;4910356;29;19962;-87
2022/08/19 05:30:56;;;;;;;;;;;20.00;69.10;;;;;;4919765;29;19927;-91
2022/08/19 05:33:24;;;;;;;;;;;20.10;68.40;;;;;;4914067;29;19982;-89
2022/08/19 05:35:52;;;;;;;;;;;20.10;68.00;;;;;;4915822;29;19970;-89
2022/08/19 05:38:19;;;;;;;;;;;20.20;67.70;;;;;;4920769;29;19983;-86
2022/08/19 05:40:47;;;;;;;;;;;20.20;67.30;;;;;;4922209;29;20359;-86
2022/08/19 05:43:17;;;;;;;;;;;20.20;67.30;;;;;;4924585;29;19937;-86
2022/08/19 05:45:44;;;;;;;;;;;20.30;66.90;;;;;;4919683;29;20445;-89
2022/08/19 05:48:11;;;;;;;;;;;20.30;67.00;;;;;;4916503;29;19930;-85
2022/08/19 05:50:40;;;;;;;;;;;20.30;66.60;;;;;;4914320;29;19927;-87
2022/08/19 05:53:08;;;;;;;;;;;20.30;66.80;;;;;;4916574;29;19935;-87
2022/08/19 05:55:36;;;;;;;;;;;20.40;66.80;;;;;;4911644;29;19930;-87
2022/08/19 05:58:03;;;;;;;;;;;20.40;65.80;;;;;;4918194;29;19931;-86
2022/08/19 06:00:31;;;;;;;;;;;20.40;65.80;;;;;;4920919;29;19986;-86
2022/08/19 06:02:59;;;;;;;;;;;20.50;66.70;;;;;;4921345;29;20391;-91
2022/08/19 06:05:35;;;;;;;;;;;20.60;65.10;;;;;;4918770;29;19930;-87
2022/08/19 06:08:18;;;;;;;;;;;20.60;65.00;;;;;;4918902;29;19926;-85
2022/08/19 06:10:44;;;;;;;;;;;20.60;65.00;;;;;;4919759;29;19937;-87
2022/08/19 06:13:11;;;;;;;;;;;20.60;64.90;;;;;;4915141;29;19926;-86
2022/08/19 06:15:38;;;;;;;;;;;20.70;64.30;;;;;;4912400;29;19927;-89
2022/08/19 06:18:05;;;;;;;;;;;20.70;64.80;;;;;;4919243;29;20303;-87
2022/08/19 06:20:32;;;;;;;;;;;20.70;64.80;;;;;;4944493;29;19958;-89
2022/08/19 06:23:20;;;;;;;;;;;20.80;65.60;;;;;;4922413;29;20348;-87
2022/08/19 06:25:50;;;;;;;;;;;20.80;65.70;;;;;;4922304;29;19937;-89
2022/08/19 06:28:16;;;;;;;;;;;20.80;66.10;;;;;;4917366;29;20376;-88
2022/08/19 06:30:44;;;;;;;;;;;20.80;66.20;;;;;;4911961;29;20380;-87
2022/08/19 06:33:11;;;;;;;;;;;20.90;66.40;;;;;;4938746;29;19927;-88
2022/08/19 06:35:39;;;;;;;;;;;21.00;65.10;;;;;;4910105;29;19927;-87
2022/08/19 06:38:06;;;;;;;;;;;21.00;64.60;;;;;;4942111;29;19994;-88
2022/08/19 06:40:33;;;;;;;;;;;21.00;65.10;;;;;;4917321;29;19978;-87
2022/08/19 06:43:01;;;;;;;;;;;21.10;64.60;;;;;;4924047;29;19938;-89
2022/08/19 06:45:31;;;;;;;;;;;21.20;64.20;;;;;;4941967;29;20430;-89
2022/08/19 06:48:01;;;;;;;;;;;21.30;64.70;;;;;;4933483;29;19931;-86
2022/08/19 06:50:29;;;;;;;;;;;21.40;64.50;;;;;;4939071;29;20380;-87
2022/08/19 06:52:55;;;;;;;;;;;21.50;63.70;;;;;;4926975;29;20409;-85
2022/08/19 06:55:23;;;;;;;;;;;21.70;63.20;;;;;;4937726;29;19989;-84
2022/08/19 06:57:52;;;;;;;;;;;21.80;63.30;;;;;;4937694;29;19927;-83
2022/08/19 07:00:20;;;;;;;;;;;22.00;62.30;;;;;;4941866;29;19931;-86
2022/08/19 07:02:47;;;;;;;;;;;22.00;62.50;;;;;;4945058;29;19986;-87
2022/08/19 07:05:21;;;;;;;;;;;22.00;61.90;;;;;;4944383;29;20517;-87
2022/08/19 07:07:48;;;;;;;;;;;22.10;61.70;;;;;;4919347;29;19926;-86
2022/08/19 07:10:16;;;;;;;;;;;22.10;62.20;;;;;;4915475;29;19997;-90
2022/08/19 07:12:44;;;;;;;;;;;22.20;62.50;;;;;;4923808;29;20359;-86
2022/08/19 07:15:11;;;;;;;;;;;22.20;60.90;;;;;;4942044;29;19927;-90
2022/08/19 07:17:39;;;;;;;;;;;22.20;61.50;;;;;;4944942;29;19930;-86
2022/08/19 07:20:08;;;;;;;;;;;22.20;61.90;;;;;;4936949;29;19983;-89
2022/08/19 07:22:37;;;;;;;;;;;22.30;62.20;;;;;;4915826;29;20304;-87
2022/08/19 07:25:05;;;;;;;;;;;22.40;61.70;;;;;;4923693;29;19926;-89
2022/08/19 07:27:33;;;;;;;;;;;22.40;62.30;;;;;;4937307;29;20387;-89
2022/08/19 07:30:00;;;;;;;;;;;22.40;61.20;;;;;;4931960;29;19975;-89
2022/08/19 07:32:27;;;;;;;;;;;22.40;62.10;;;;;;4933023;29;19931;-86
2022/08/19 07:34:55;;;;;;;;;;;22.40;62.10;;;;;;4934233;29;20005;-87
2022/08/19 07:37:23;;;;;;;;;;;22.40;62.80;;;;;;4921127;29;19933;-88
2022/08/19 07:39:55;;;;;;;;;;;22.60;61.20;;;;;;4918109;29;19937;-83
2022/08/19 07:42:22;;;;;;;;;;;22.80;59.90;;;;;;4941030;29;19938;-85
2022/08/19 07:44:49;;;;;;;;;;;23.00;59.90;;;;;;4927048;29;19927;-87
2022/08/19 07:47:17;;;;;;;;;;;23.20;59.40;;;;;;4922670;29;19926;-90
2022/08/19 07:50:05;;;;;;;;;;;23.40;58.80;;;;;;4920400;29;19958;-87
2022/08/19 07:52:34;;;;;;;;;;;23.60;58.90;;;;;;4912516;29;19927;-85
2022/08/19 07:55:03;;;;;;;;;;;23.80;57.20;;;;;;4922723;29;19934;-87
2022/08/19 07:57:30;;;;;;;;;;;24.00;56.70;;;;;;4914079;29;19990;-87
2022/08/19 07:59:57;;;;;;;;;;;24.10;56.10;;;;;;4917075;29;20304;-87
2022/08/19 08:02:24;;;;;;;;;;;24.40;55.30;;;;;;4921078;29;19986;-86
2022/08/19 08:10:22;;;;;;;;;;;25.10;55.10;;;;;;4937389;29;19931;-86
2022/08/19 08:12:51;;;;;;;;;;;25.30;55.00;;;;;;4924413;29;20446;-85
2022/08/19 08:15:37;;;;;;;;;;;25.50;52.50;;;;;;4926738;29;20406;-86
2022/08/19 08:18:09;;;;;;;;;;;25.60;53.30;;;;;;4922519;29;19933;-85
2022/08/19 08:20:36;;;;;;;;;;;25.70;53.10;;;;;;4937839;29;19927;-86
2022/08/19 08:25:48;;;;;;;;;;;26.00;51.50;;;;;;4932642;29;20407;-86
2022/08/19 08:28:16;;;;;;;;;;;26.00;51.30;;;;;;4921056;29;19937;-87
2022/08/19 08:30:45;;;;;;;;;;;26.00;51.20;;;;;;4918011;29;20935;-86
2022/08/19 08:33:13;;;;;;;;;;;25.80;51.40;;;;;;4934406;29;20470;-85
2022/08/19 08:35:45;;;;;;;;;;;25.70;52.00;;;;;;4920942;29;19935;-87
2022/08/19 08:38:12;;;;;;;;;;;25.60;52.40;;;;;;4915801;29;19957;-88
2022/08/19 08:40:43;;;;;;;;;;;25.50;53.00;;;;;;4932603;29;19926;-85
2022/08/19 08:43:30;;;;;;;;;;;25.50;53.60;;;;;;4923682;29;19931;-87
2022/08/19 08:46:01;;;;;;;;;;;25.50;53.40;;;;;;4922061;29;19933;-86
2022/08/19 08:48:49;;;;;;;;;;;25.40;53.60;;;;;;4921639;29;19931;-85
2022/08/19 08:51:22;;;;;;;;;;;25.50;53.40;;;;;;4933150;29;20391;-85
2022/08/19 08:53:50;;;;;;;;;;;25.60;53.80;;;;;;4922936;29;19934;-84
2022/08/19 08:56:22;;;;;;;;;;;25.70;51.80;;;;;;4916856;29;20358;-85
2022/08/19 08:58:58;;;;;;;;;;;25.60;52.60;;;;;;4926410;29;19990;-85
2022/08/19 09:01:26;;;;;;;;;;;25.50;55.60;;;;;;4915609;28;20449;-85
2022/08/19 09:03:56;;;;;;;;;;;25.50;56.80;;;;;;4915779;29;19933;-89
2022/08/19 09:06:31;;;;;;;;;;;25.40;58.10;;;;;;4915922;28;19930;-88
2022/08/19 09:08:59;;;;;;;;;;;25.20;58.60;;;;;;4927752;29;19931;-86
2022/08/19 09:11:38;;;;;;;;;;;25.00;59.80;;;;;;4915820;29;19982;-85
2022/08/19 09:14:13;;;;;;;;;;;24.80;56.00;;;;;;4921875;29;19930;-87
2022/08/19 09:17:03;;;;;;;;;;;24.70;58.50;;;;;;4922891;29;19930;-86
2022/08/19 09:19:30;;;;;;;;;;;24.60;62.20;;;;;;4914490;29;19938;-90
2022/08/19 09:22:00;;;;;;;;;;;24.60;63.70;;;;;;4932608;29;19935;-86
2022/08/19 09:24:27;;;;;;;;;;;24.60;64.60;;;;;;4919426;29;19930;-87
2022/08/19 09:26:56;;;;;;;;;;;24.70;64.40;;;;;;4937181;29;20001;-86
2022/08/19 09:29:24;;;;;;;;;;;24.60;64.60;;;;;;4922589;28;19933;-90
2022/08/19 09:31:51;;;;;;;;;;;24.70;65.10;;;;;;4938956;29;19986;-90
2022/08/19 09:34:19;;;;;;;;;;;24.70;65.30;;;;;;4935624;29;19986;-86
2022/08/19 09:36:52;;;;;;;;;;;24.90;63.30;;;;;;4938318;29;19934;-87
2022/08/19 09:39:20;;;;;;;;;;;25.00;63.60;;;;;;4918675;28;19926;-90
2022/08/19 09:41:49;;;;;;;;;;;25.10;64.10;;;;;;4936783;29;19927;-89
2022/08/19 09:44:17;;;;;;;;;;;25.20;63.80;;;;;;4916280;29;19933;-91
2022/08/19 09:46:46;;;;;;;;;;;25.20;63.50;;;;;;4923733;29;19926;-91
2022/08/19 09:49:14;;;;;;;;;;;25.20;64.10;;;;;;4911444;29;19927;-86
2022/08/19 09:51:44;;;;;;;;;;;25.20;64.30;;;;;;4920904;29;19927;-85
2022/08/19 09:54:17;;;;;;;;;;;25.30;64.10;;;;;;4940859;29;19926;-86
2022/08/19 09:56:51;;;;;;;;;;;25.30;62.60;;;;;;4930585;29;19927;-85
2022/08/19 09:59:18;;;;;;;;;;;25.30;62.80;;;;;;4932113;29;19954;-86
2022/08/19 10:01:45;;;;;;;;;;;25.30;61.80;;;;;;4926011;29;19930;-86
2022/08/19 10:04:12;;;;;;;;;;;25.40;57.70;;;;;;4921385;29;20013;-86
2022/08/19 10:06:47;;;;;;;;;;;25.40;58.70;;;;;;4939588;29;19934;-85
2022/08/19 10:09:19;;;;;;;;;;;25.40;59.50;;;;;;4924201;29;20446;-87
2022/08/19 10:12:00;;;;;;;;;;;25.40;61.70;;;;;;4938687;29;19931;-85
2022/08/19 10:14:28;;;;;;;;;;;25.30;63.00;;;;;;4927700;29;19934;-87
2022/08/19 10:16:56;;;;;;;;;;;25.20;63.30;;;;;;4923498;29;19930;-85
2022/08/19 10:19:25;;;;;;;;;;;25.10;63.90;;;;;;4925108;29;19927;-92
2022/08/19 10:21:53;;;;;;;;;;;25.00;63.00;;;;;;4920845;29;20022;-85
2022/08/19 10:24:24;;;;;;;;;;;24.90;63.30;;;;;;4929076;29;19966;-87
2022/08/19 10:26:50;;;;;;;;;;;24.90;63.80;;;;;;4922313;29;19959;-85
2022/08/19 10:29:24;;;;;;;;;;;24.90;63.10;;;;;;4918283;29;19987;-90
2022/08/19 10:31:59;;;;;;;;;;;24.80;63.70;;;;;;4936318;29;19966;-90
2022/08/19 10:34:29;;;;;;;;;;;24.80;64.30;;;;;;4930831;29;19931;-87
2022/08/19 10:36:56;;;;;;;;;;;24.60;64.70;;;;;;4916450;29;19935;-86
2022/08/19 10:39:30;;;;;;;;;;;24.40;65.60;;;;;;4913441;29;20002;-85
2022/08/19 10:42:12;;;;;;;;;;;24.40;66.20;;;;;;4924529;29;20021;-86
2022/08/19 10:44:40;;;;;;;;;;;24.40;66.60;;;;;;4939084;29;19931;-86
2022/08/19 10:47:06;;;;;;;;;;;24.40;66.10;;;;;;4917649;29;20383;-89
2022/08/19 10:52:42;;;;;;;;;;;24.20;65.70;;;;;;4943549;29;19933;-88
2022/08/19 10:58:02;;;;;;;;;;;24.20;67.10;;;;;;4925439;29;19930;-90
2022/08/19 11:00:31;;;;;;;;;;;24.20;66.50;;;;;;4915870;29;19931;-89
2022/08/19 11:02:58;;;;;;;;;;;24.30;67.40;;;;;;4924774;29;19942;-85
2022/08/19 11:05:25;;;;;;;;;;;24.30;66.40;;;;;;4911214;29;19998;-85
2022/08/19 11:07:52;;;;;;;;;;;24.30;65.70;;;;;;4925670;29;19931;-87
2022/08/19 11:10:19;;;;;;;;;;;24.50;66.10;;;;;;4918374;29;19995;-87
2022/08/19 11:12:48;;;;;;;;;;;24.60;67.50;;;;;;4933401;29;19935;-86
2022/08/19 11:15:15;;;;;;;;;;;24.80;66.10;;;;;;4921401;29;19935;-88
2022/08/19 11:17:43;;;;;;;;;;;24.90;65.20;;;;;;4925656;29;19930;-88
2022/08/19 11:20:14;;;;;;;;;;;25.00;64.60;;;;;;4926782;29;19989;-88
2022/08/19 11:22:41;;;;;;;;;;;25.20;62.90;;;;;;4922159;29;19974;-90
2022/08/19 11:25:10;;;;;;;;;;;25.30;60.80;;;;;;4923687;29;19951;-87
2022/08/19 11:27:39;;;;;;;;;;;25.50;60.20;;;;;;4930098;29;19934;-87
2022/08/19 11:30:07;;;;;;;;;;;25.60;58.90;;;;;;4922192;29;20308;-87
2022/08/19 11:32:39;;;;;;;;;;;25.80;58.10;;;;;;4930865;29;19931;-90
2022/08/19 11:35:07;;;;;;;;;;;26.00;57.60;;;;;;4912996;29;19966;-88
2022/08/19 11:37:37;;;;;;;;;;;26.20;58.10;;;;;;4912779;29;19978;-87
2022/08/19 11:40:05;;;;;;;;;;;26.40;58.20;;;;;;4924397;29;19931;-90
2022/08/19 11:45:18;;;;;;;;;;;26.70;58.30;;;;;;4936733;28;20351;-90
2022/08/19 11:47:46;;;;;;;;;;;27.10;57.60;;;;;;4926261;29;19931;-86
2022/08/19 11:50:13;;;;;;;;;;;27.30;56.40;;;;;;4926240;29;19935;-89
2022/08/19 11:52:40;;;;;;;;;;;27.50;55.40;;;;;;4922968;29;19927;-91
2022/08/19 11:55:08;;;;;;;;;;;27.70;55.30;;;;;;4918614;29;19927;-86
2022/08/19 11:57:35;;;;;;;;;;;27.80;53.50;;;;;;4936498;29;19931;-87
2022/08/19 12:00:03;;;;;;;;;;;28.00;53.60;;;;;;4936285;29;20396;-85
2022/08/19 12:02:30;;;;;;;;;;;28.10;51.80;;;;;;4934886;29;19935;-87
2022/08/19 12:04:57;;;;;;;;;;;28.00;52.00;;;;;;4934609;29;20398;-90
2022/08/19 12:07:24;;;;;;;;;;;28.10;53.40;;;;;;4942165;29;20834;-88
2022/08/19 12:09:51;;;;;;;;;;;28.30;53.70;;;;;;4919982;29;19930;-91
2022/08/19 12:12:21;;;;;;;;;;;28.40;50.20;;;;;;4920657;29;20430;-90
2022/08/19 12:14:50;;;;;;;;;;;28.40;51.10;;;;;;4926909;29;19963;-86
2022/08/19 12:17:17;;;;;;;;;;;28.50;50.20;;;;;;4923861;29;20382;-86
2022/08/19 12:19:44;;;;;;;;;;;28.50;49.10;;;;;;4918712;29;19958;-87
2022/08/19 12:22:11;;;;;;;;;;;28.50;49.60;;;;;;4935374;29;19931;-85
2022/08/19 12:24:38;;;;;;;;;;;28.60;50.10;;;;;;4918427;29;20076;-85
2022/08/19 12:27:04;;;;;;;;;;;28.70;50.30;;;;;;4918755;29;19982;-85
2022/08/19 12:29:38;;;;;;;;;;;28.70;50.00;;;;;;4917559;29;19931;-88
2022/08/19 12:32:05;;;;;;;;;;;28.90;49.30;;;;;;4916616;29;20025;-86
2022/08/19 12:34:37;;;;;;;;;;;29.00;50.40;;;;;;4920214;29;19934;-87
2022/08/19 12:37:05;;;;;;;;;;;29.20;50.30;;;;;;4919774;29;19938;-85
2022/08/19 12:39:37;;;;;;;;;;;29.50;49.50;;;;;;4921719;29;19927;-86
2022/08/19 12:42:04;;;;;;;;;;;29.70;48.00;;;;;;4916437;29;20503;-85
2022/08/19 12:44:31;;;;;;;;;;;29.90;48.60;;;;;;4924415;29;19927;-86
2022/08/19 12:46:59;;;;;;;;;;;29.90;47.00;;;;;;4919068;29;19927;-85
2022/08/19 12:49:30;;;;;;;;;;;30.10;47.30;;;;;;4938221;29;19934;-86
2022/08/19 12:52:20;;;;;;;;;;;30.20;47.60;;;;;;4944017;29;19958;-86
2022/08/19 12:54:49;;;;;;;;;;;30.40;46.30;;;;;;4930635;29;19926;-90
2022/08/19 12:57:21;;;;;;;;;;;30.60;46.00;;;;;;4919800;29;19930;-86
2022/08/19 12:59:53;;;;;;;;;;;30.70;46.60;;;;;;4935724;29;19987;-86
2022/08/19 13:02:21;;;;;;;;;;;31.00;46.50;;;;;;4926163;29;19989;-88
2022/08/19 13:04:48;;;;;;;;;;;31.10;45.30;;;;;;4924585;29;20340;-90
2022/08/19 13:07:15;;;;;;;;;;;31.20;45.60;;;;;;4919043;29;19935;-89
2022/08/19 13:09:42;;;;;;;;;;;31.20;45.20;;;;;;4938617;29;19942;-90
2022/08/19 13:12:12;;;;;;;;;;;31.30;44.20;;;;;;4912236;29;19977;-87
2022/08/19 13:14:40;;;;;;;;;;;31.10;43.70;;;;;;4917909;29;19931;-91
2022/08/19 13:17:08;;;;;;;;;;;30.90;43.80;;;;;;4925874;29;20391;-85
2022/08/19 13:19:36;;;;;;;;;;;30.90;45.00;;;;;;4925546;29;19986;-87
2022/08/19 13:22:03;;;;;;;;;;;30.90;44.90;;;;;;4921617;29;19927;-88
2022/08/19 13:24:38;;;;;;;;;;;31.10;44.80;;;;;;4920822;29;19927;-90
2022/08/19 13:27:12;;;;;;;;;;;31.30;43.60;;;;;;4941597;29;20013;-86
2022/08/19 13:35:12;;;;;;;;;;;31.50;43.50;;;;;;4940623;29;19931;-89
2022/08/19 13:37:43;;;;;;;;;;;31.50;41.90;;;;;;4928360;29;19927;-86
2022/08/19 13:40:12;;;;;;;;;;;31.60;42.80;;;;;;4926518;29;19931;-85
2022/08/19 13:42:40;;;;;;;;;;;31.70;42.10;;;;;;4940116;29;19926;-87
2022/08/19 13:45:07;;;;;;;;;;;31.90;41.90;;;;;;4930066;28;19982;-86
2022/08/19 13:47:34;;;;;;;;;;;31.80;41.20;;;;;;4927504;29;20351;-85
2022/08/19 13:50:04;;;;;;;;;;;31.90;41.70;;;;;;4943945;29;19926;-86
2022/08/19 13:52:31;;;;;;;;;;;31.90;41.70;;;;;;4930317;29;20018;-90
2022/08/19 13:54:58;;;;;;;;;;;32.00;42.30;;;;;;4927134;29;20380;-86
2022/08/19 13:57:25;;;;;;;;;;;32.00;41.00;;;;;;4928399;28;19937;-86
2022/08/19 13:59:52;;;;;;;;;;;32.10;41.40;;;;;;4942998;29;19934;-86
2022/08/19 14:02:18;;;;;;;;;;;32.30;40.90;;;;;;4928050;29;19927;-88
2022/08/19 14:04:45;;;;;;;;;;;32.50;40.70;;;;;;4941640;29;20269;-90
2022/08/19 14:07:12;;;;;;;;;;;32.50;40.50;;;;;;4923400;29;19927;-92
2022/08/19 14:09:39;;;;;;;;;;;32.50;40.70;;;;;;4921204;29;19959;-87
2022/08/19 14:12:06;;;;;;;;;;;32.60;40.50;;;;;;4927672;29;19988;-88
2022/08/19 14:14:36;;;;;;;;;;;32.60;40.20;;;;;;4925853;29;20343;-86
2022/08/19 14:17:07;;;;;;;;;;;32.70;40.80;;;;;;4941585;29;19927;-89
2022/08/19 14:19:37;;;;;;;;;;;32.80;40.80;;;;;;4931340;29;19934;-88
2022/08/19 14:22:06;;;;;;;;;;;32.70;40.30;;;;;;4924154;29;19931;-87
2022/08/19 14:24:33;;;;;;;;;;;32.80;38.60;;;;;;4928436;29;20021;-87
2022/08/19 14:27:00;;;;;;;;;;;32.70;39.80;;;;;;4929369;29;20331;-87
2022/08/19 14:29:29;;;;;;;;;;;32.90;40.00;;;;;;4947336;28;19977;-90
2022/08/19 14:31:58;;;;;;;;;;;33.00;39.30;;;;;;4924321;29;19985;-87
2022/08/19 14:34:26;;;;;;;;;;;33.10;39.50;;;;;;4941771;29;19962;-86
2022/08/19 14:36:52;;;;;;;;;;;33.20;40.40;;;;;;4924096;29;19934;-87
2022/08/19 14:39:19;;;;;;;;;;;33.20;39.70;;;;;;4913922;29;19926;-87
2022/08/19 14:41:46;;;;;;;;;;;33.20;40.80;;;;;;4924174;29;19927;-86
2022/08/19 14:44:13;;;;;;;;;;;33.10;38.10;;;;;;4918419;29;20388;-92
2022/08/19 14:46:40;;;;;;;;;;;32.80;39.10;;;;;;4915483;29;20344;-86
2022/08/19 14:49:15;;;;;;;;;;;32.80;40.20;;;;;;4923141;29;19938;-91
2022/08/19 14:51:42;;;;;;;;;;;32.80;40.30;;;;;;4939502;29;19978;-87
2022/08/19 14:54:09;;;;;;;;;;;32.80;40.10;;;;;;4940426;29;19934;-91
2022/08/19 14:56:36;;;;;;;;;;;32.60;38.70;;;;;;4926199;29;19986;-91
2022/08/19 14:59:02;;;;;;;;;;;32.50;39.60;;;;;;4946276;29;19927;-86